Current Weather

Aurora Muni

Aurora, Illinois (KARR)

Report from: Thursday, August 18, 2022 11:52 PM CDT
Current time: Friday, August 19, 2022 12:51 AM CDT

Nearby weather
Weather history
Weather forecast

Temperature16.7°C (62.1°F)
Dew point15.6°C (60.1°F)
Winds Calm
Visibility9 mi. (14.5 km)
Clouds Sky clear
Altimeter29.95 in.Hg (1014 mB)
Relative humidity93 %
Density altitude411 ft. (125 m)
Sea-level pressure101.4 kPa (1014 mB, 29.94 in.Hg)
Remarks Fully automated report
Automated weather observing station with precipitation discriminator
Flight conditions Visual Meteorological Conditions
Raw dataKARR 190452Z AUTO 00000KT 9SM CLR 17/16 A2995 RMK AO2 SLP140 T01670156
An unhandled exception has occurred. See browser dev tools for details. Reload 🗙